createdAt,value
2022-11-28T00:00:57.919Z,-0.75
2022-11-28T00:02:01.742Z,-0.70
2022-11-28T00:03:04.846Z,-0.66
2022-11-28T00:04:09.139Z,-0.60
2022-11-28T00:05:12.783Z,-0.57
2022-11-28T00:06:17.065Z,-0.53
2022-11-28T00:07:20.026Z,-0.49
2022-11-28T00:08:24.363Z,-0.47
2022-11-28T00:09:27.134Z,-0.43
2022-11-28T00:10:31.004Z,-0.39
2022-11-28T00:11:36.386Z,-0.36
2022-11-28T00:12:39.130Z,-0.33
2022-11-28T00:13:43.771Z,-0.29
2022-11-28T00:14:46.416Z,-0.25
2022-11-28T00:15:57.157Z,-0.20
2022-11-28T00:17:00.950Z,-0.18
2022-11-28T00:18:03.806Z,-0.14
2022-11-28T00:19:08.245Z,-0.11
2022-11-28T00:20:11.359Z,-0.07
2022-11-28T00:21:16.228Z,-0.03
2022-11-28T00:22:18.887Z,0.01
2022-11-28T00:23:22.577Z,0.05
2022-11-28T00:24:26.667Z,0.09
2022-11-28T00:25:29.337Z,0.14
2022-11-28T00:26:36.684Z,0.17
2022-11-28T00:27:39.413Z,0.21
2022-11-28T00:28:43.799Z,0.24
2022-11-28T00:29:47.511Z,0.27
2022-11-28T00:30:50.183Z,0.27
2022-11-28T00:31:54.023Z,0.28
2022-11-28T00:32:56.748Z,0.29
2022-11-28T00:34:01.914Z,0.32
2022-11-28T00:35:05.217Z,0.33
2022-11-28T00:36:09.514Z,0.36
2022-11-28T00:37:13.270Z,0.40
2022-11-28T00:38:16.078Z,0.42
2022-11-28T00:39:20.112Z,0.47
2022-11-28T00:40:23.367Z,0.51
2022-11-28T00:41:28.820Z,0.56
2022-11-28T00:42:32.948Z,0.57
2022-11-28T00:43:37.260Z,0.60
2022-11-28T00:44:40.070Z,0.61
2022-11-28T00:45:43.938Z,0.63
2022-11-28T00:46:47.658Z,0.65
2022-11-28T00:47:50.403Z,0.68
2022-11-28T00:48:54.530Z,0.70
2022-11-28T00:49:57.131Z,0.71
2022-11-28T00:51:07.946Z,0.75
2022-11-28T00:52:11.692Z,0.75
2022-11-28T00:53:14.478Z,0.76
2022-11-28T00:54:18.188Z,0.77
2022-11-28T00:55:20.798Z,0.77
2022-11-28T00:56:26.259Z,0.78
2022-11-28T00:57:28.909Z,0.79
2022-11-28T00:58:34.082Z,0.78
2022-11-28T00:59:36.841Z,0.80
2022-11-28T01:00:40.604Z,0.78
2022-11-28T01:01:45.375Z,0.78
2022-11-28T01:02:48.324Z,0.78
2022-11-28T01:03:53.070Z,0.80
2022-11-28T01:04:55.727Z,0.79
2022-11-28T01:05:59.561Z,0.76
2022-11-28T01:07:02.778Z,0.76
2022-11-28T01:08:06.577Z,0.74
2022-11-28T01:09:13.446Z,0.74
2022-11-28T01:10:16.311Z,0.72
2022-11-28T01:11:20.759Z,0.72
2022-11-28T01:12:23.408Z,0.72
2022-11-28T01:13:27.367Z,0.72
2022-11-28T01:14:31.468Z,0.73
2022-11-28T01:15:35.172Z,0.74
2022-11-28T01:16:38.481Z,0.73
2022-11-28T01:17:42.197Z,0.72
2022-11-28T01:18:44.859Z,0.73
2022-11-28T01:19:48.604Z,0.72
2022-11-28T01:20:51.281Z,0.72
2022-11-28T01:21:55.000Z,0.71
2022-11-28T01:22:57.658Z,0.70
2022-11-28T01:24:01.519Z,0.70
2022-11-28T01:25:04.780Z,0.69
2022-11-28T01:26:10.340Z,0.69
2022-11-28T01:27:12.939Z,0.68
2022-11-28T01:28:16.750Z,0.69
2022-11-28T01:29:19.347Z,0.69
2022-11-28T01:30:24.589Z,0.70
2022-11-28T01:31:29.382Z,0.69
2022-11-28T01:32:33.080Z,0.70
2022-11-28T01:33:36.095Z,0.68
2022-11-28T01:34:39.954Z,0.66
2022-11-28T01:35:42.840Z,0.65
2022-11-28T01:36:46.538Z,0.66
2022-11-28T01:37:49.225Z,0.66
2022-11-28T01:38:53.427Z,0.66
2022-11-28T01:39:57.218Z,0.66
2022-11-28T01:40:59.978Z,0.67
2022-11-28T01:42:03.729Z,0.68
2022-11-28T01:43:06.804Z,0.67
2022-11-28T01:44:49.059Z,0.67
2022-11-28T01:45:54.749Z,0.64
2022-11-28T01:46:57.498Z,0.66
2022-11-28T01:48:03.388Z,0.65
2022-11-28T01:49:13.750Z,0.65
2022-11-28T01:50:17.939Z,0.64
2022-11-28T01:51:21.209Z,0.64
2022-11-28T01:52:25.341Z,0.65
2022-11-28T01:53:29.961Z,0.66
2022-11-28T01:54:34.978Z,0.67
2022-11-28T01:55:41.521Z,0.68
2022-11-28T01:56:51.325Z,0.65
2022-11-28T01:57:55.849Z,0.63
2022-11-28T01:59:01.416Z,0.64
2022-11-28T02:00:09.388Z,0.67
2022-11-28T02:01:20.577Z,0.70
2022-11-28T02:02:27.581Z,0.74
2022-11-28T02:03:36.241Z,0.76
2022-11-28T02:04:39.075Z,0.78
2022-11-28T02:05:42.930Z,0.77
2022-11-28T02:06:45.827Z,0.76
2022-11-28T02:07:50.416Z,0.79
2022-11-28T02:08:53.887Z,0.80
2022-11-28T02:09:58.168Z,0.82
2022-11-28T02:11:32.616Z,0.86
2022-11-28T02:12:46.866Z,0.86
2022-11-28T02:13:56.518Z,0.88
2022-11-28T02:15:13.694Z,0.90
2022-11-28T02:16:32.737Z,0.91
2022-11-28T02:17:45.796Z,0.91
2022-11-28T02:18:58.957Z,0.92
2022-11-28T02:20:26.678Z,0.95
2022-11-28T02:21:40.341Z,0.95
2022-11-28T02:22:46.258Z,0.98
2022-11-28T02:24:12.788Z,1.00
2022-11-28T02:25:55.526Z,0.97
2022-11-28T02:27:09.818Z,0.94
2022-11-28T02:28:46.314Z,0.94
2022-11-28T02:30:13.223Z,0.94
2022-11-28T02:31:37.409Z,0.96
2022-11-28T02:33:07.624Z,1.02
2022-11-28T02:34:13.647Z,1.07
2022-11-28T02:35:22.069Z,1.12
2022-11-28T02:36:29.381Z,1.16
2022-11-28T02:37:38.018Z,1.17
2022-11-28T02:38:56.175Z,1.17
2022-11-28T02:40:07.091Z,1.17
2022-11-28T02:41:18.749Z,1.19
2022-11-28T02:42:25.704Z,1.21
2022-11-28T02:43:33.227Z,1.22
2022-11-28T02:44:45.359Z,1.24
2022-11-28T02:45:54.724Z,1.25
2022-11-28T02:47:02.504Z,1.26
2022-11-28T02:48:10.817Z,1.30
2022-11-28T02:49:16.340Z,1.33
2022-11-28T02:50:24.142Z,1.36
2022-11-28T02:51:31.379Z,1.38
2022-11-28T02:52:37.411Z,1.39
2022-11-28T02:53:42.468Z,1.40
2022-11-28T02:54:47.081Z,1.42
2022-11-28T02:55:50.404Z,1.45
2022-11-28T02:56:55.678Z,1.48
2022-11-28T02:57:58.326Z,1.49
2022-11-28T02:59:02.130Z,1.53
2022-11-28T03:00:27.203Z,1.54
2022-11-28T03:01:33.913Z,1.58
2022-11-28T03:02:36.816Z,1.60
2022-11-28T03:04:00.507Z,1.64
2022-11-28T03:05:08.626Z,1.65
2022-11-28T03:06:20.447Z,1.66
2022-11-28T03:07:31.646Z,1.66
2022-11-28T03:08:43.684Z,1.65
2022-11-28T03:09:57.029Z,1.66
2022-11-28T03:11:05.878Z,1.67
2022-11-28T03:12:17.509Z,1.68
2022-11-28T03:13:24.679Z,1.69
2022-11-28T03:14:36.964Z,1.71
2022-11-28T03:15:46.608Z,1.71
2022-11-28T03:16:52.238Z,1.73
2022-11-28T03:18:04.336Z,1.76
2022-11-28T03:19:12.760Z,1.79
2022-11-28T03:20:21.826Z,1.81
2022-11-28T03:21:27.636Z,1.80
2022-11-28T03:22:37.251Z,1.81
2022-11-28T03:23:43.783Z,1.82
2022-11-28T03:24:50.120Z,1.85
2022-11-28T03:25:57.817Z,1.87
2022-11-28T03:27:06.449Z,1.90
2022-11-28T03:28:13.018Z,1.91
2022-11-28T03:29:20.386Z,1.92
2022-11-28T03:30:28.927Z,1.92
2022-11-28T03:31:36.163Z,1.93
2022-11-28T03:32:40.057Z,1.94
2022-11-28T03:33:48.228Z,1.95
2022-11-28T03:34:56.838Z,1.95
2022-11-28T03:36:04.132Z,1.95
2022-11-28T03:37:09.729Z,1.95
2022-11-28T03:38:18.357Z,1.94
2022-11-28T03:39:23.858Z,1.96
2022-11-28T03:40:30.290Z,1.97
2022-11-28T03:41:34.919Z,1.98
2022-11-28T03:42:42.729Z,2.00
2022-11-28T03:43:48.170Z,1.99
2022-11-28T03:45:00.620Z,2.00
2022-11-28T03:46:05.887Z,2.01
2022-11-28T03:47:10.209Z,2.01
2022-11-28T03:48:16.138Z,2.01
2022-11-28T03:49:22.990Z,2.02
2022-11-28T03:50:30.369Z,2.02
2022-11-28T03:51:35.754Z,2.03
2022-11-28T03:52:42.078Z,2.04
2022-11-28T03:53:50.826Z,2.04
2022-11-28T03:54:58.291Z,2.07
2022-11-28T03:56:04.777Z,2.07
2022-11-28T03:57:13.029Z,2.10
2022-11-28T03:58:23.520Z,2.10
2022-11-28T03:59:30.517Z,2.12
2022-11-28T04:00:34.556Z,2.13
2022-11-28T04:01:45.527Z,2.13
2022-11-28T04:02:55.598Z,2.13
2022-11-28T04:04:09.250Z,2.15
2022-11-28T04:05:19.512Z,2.15
2022-11-28T04:06:27.288Z,2.16
2022-11-28T04:07:35.233Z,2.16
2022-11-28T04:08:42.897Z,2.18
2022-11-28T04:09:48.399Z,2.18
2022-11-28T04:10:56.318Z,2.17
2022-11-28T04:12:04.218Z,2.16
2022-11-28T04:13:13.658Z,2.16
2022-11-28T04:14:20.859Z,2.15
2022-11-28T04:15:31.015Z,2.16
2022-11-28T04:16:36.992Z,2.16
2022-11-28T04:17:47.346Z,2.18
2022-11-28T04:18:53.117Z,2.18
2022-11-28T04:20:02.699Z,2.18
2022-11-28T04:21:11.007Z,2.18
2022-11-28T04:22:19.708Z,2.18
2022-11-28T04:23:22.657Z,2.17
2022-11-28T04:24:28.896Z,2.16
2022-11-28T04:25:34.891Z,2.15
2022-11-28T04:26:42.648Z,2.16
2022-11-28T04:27:49.476Z,2.16
2022-11-28T04:28:54.523Z,2.16
2022-11-28T04:29:59.540Z,2.16
2022-11-28T04:31:04.500Z,2.16
2022-11-28T04:32:08.888Z,2.17
2022-11-28T04:33:13.358Z,2.17
2022-11-28T04:34:19.307Z,2.19
2022-11-28T04:35:27.654Z,2.20
2022-11-28T04:36:30.926Z,2.21
2022-11-28T04:37:38.692Z,2.22
2022-11-28T04:38:41.820Z,2.22
2022-11-28T04:39:48.599Z,2.22
2022-11-28T04:40:54.697Z,2.24
2022-11-28T04:42:01.690Z,2.23
2022-11-28T04:43:07.086Z,2.23
2022-11-28T04:44:13.858Z,2.24
2022-11-28T04:45:19.561Z,2.23
2022-11-28T04:46:27.705Z,2.24
2022-11-28T04:47:31.536Z,2.23
2022-11-28T04:48:34.717Z,2.24
2022-11-28T04:49:39.109Z,2.26
2022-11-28T04:50:54.695Z,2.26
2022-11-28T04:52:04.644Z,2.25
2022-11-28T04:53:12.828Z,2.26
2022-11-28T04:54:19.369Z,2.27
2022-11-28T04:55:30.567Z,2.28
2022-11-28T04:56:38.801Z,2.29
2022-11-28T04:57:44.589Z,2.29
2022-11-28T04:58:49.000Z,2.30
2022-11-28T04:59:53.298Z,2.30
2022-11-28T05:00:56.642Z,2.31
2022-11-28T05:02:04.807Z,2.32
2022-11-28T05:03:08.558Z,2.32
2022-11-28T05:04:12.650Z,2.33
2022-11-28T05:05:18.757Z,2.33
2022-11-28T05:06:29.479Z,2.35
2022-11-28T05:07:33.221Z,2.35
2022-11-28T05:08:38.540Z,2.35
2022-11-28T05:09:41.260Z,2.36
2022-11-28T05:10:44.951Z,2.36
2022-11-28T05:11:47.630Z,2.37
2022-11-28T05:12:51.339Z,2.39
2022-11-28T05:13:54.299Z,2.38
2022-11-28T05:14:58.000Z,2.40
2022-11-28T05:16:00.975Z,2.39
2022-11-28T05:17:04.721Z,2.41
2022-11-28T05:18:07.409Z,2.42
2022-11-28T05:19:11.404Z,2.42
2022-11-28T05:20:14.622Z,2.42
2022-11-28T05:21:18.280Z,2.43
2022-11-28T05:22:20.917Z,2.43
2022-11-28T05:23:24.722Z,2.44
2022-11-28T05:24:40.378Z,2.44
2022-11-28T05:25:44.118Z,2.45
2022-11-28T05:26:46.779Z,2.47
2022-11-28T05:27:50.643Z,2.47
2022-11-28T05:28:53.840Z,2.47
2022-11-28T05:29:57.539Z,2.48
2022-11-28T05:31:00.796Z,2.48
2022-11-28T05:32:04.857Z,2.49
2022-11-28T05:33:07.598Z,2.50
2022-11-28T05:34:11.296Z,2.50
2022-11-28T05:35:14.149Z,2.51
2022-11-28T05:36:18.887Z,2.52
2022-11-28T05:37:21.479Z,2.52
2022-11-28T05:38:25.238Z,2.52
2022-11-28T05:39:29.429Z,2.52
2022-11-28T05:40:33.180Z,2.52
2022-11-28T05:41:36.220Z,2.51
2022-11-28T05:42:39.986Z,2.51
2022-11-28T05:43:42.699Z,2.52
2022-11-28T05:44:46.320Z,2.52
2022-11-28T05:45:50.054Z,2.52
2022-11-28T05:46:53.148Z,2.53
2022-11-28T05:47:56.891Z,2.53
2022-11-28T05:48:59.619Z,2.53
2022-11-28T05:50:03.290Z,2.54
2022-11-28T05:51:06.630Z,2.53
2022-11-28T05:52:10.520Z,2.54
2022-11-28T05:53:13.592Z,2.53
2022-11-28T05:54:17.357Z,2.54
2022-11-28T05:55:21.417Z,2.53
2022-11-28T05:56:25.239Z,2.53
2022-11-28T05:57:30.173Z,2.54
2022-11-28T05:58:33.906Z,2.54
2022-11-28T05:59:36.721Z,2.53
2022-11-28T06:00:40.996Z,2.52
2022-11-28T06:01:43.857Z,2.51
2022-11-28T06:02:47.647Z,2.51
2022-11-28T06:03:50.393Z,2.50
2022-11-28T06:04:54.256Z,2.49
2022-11-28T06:05:56.988Z,2.49
2022-11-28T06:07:00.677Z,2.49
2022-11-28T06:08:03.379Z,2.50
2022-11-28T06:09:07.484Z,2.50
2022-11-28T06:10:10.647Z,2.51
2022-11-28T06:11:16.372Z,2.51
2022-11-28T06:12:20.068Z,2.52
2022-11-28T06:13:22.717Z,2.51
2022-11-28T06:14:26.392Z,2.52
2022-11-28T06:15:32.649Z,2.51
2022-11-28T06:16:39.280Z,2.51
2022-11-28T06:17:42.281Z,2.51
2022-11-28T06:18:46.285Z,2.52
2022-11-28T06:19:49.076Z,2.52
2022-11-28T06:20:52.907Z,2.53
2022-11-28T06:21:57.176Z,2.54
2022-11-28T06:22:59.818Z,2.54
2022-11-28T06:24:03.489Z,2.53
2022-11-28T06:25:06.568Z,2.52
2022-11-28T06:26:12.738Z,2.52
2022-11-28T06:27:16.829Z,2.50
2022-11-28T06:28:20.538Z,2.48
2022-11-28T06:29:24.207Z,2.46
2022-11-28T06:30:27.980Z,2.42
2022-11-28T06:31:31.973Z,2.41
2022-11-28T06:32:34.730Z,2.40
2022-11-28T06:33:38.737Z,2.39
2022-11-28T06:34:42.382Z,2.40
2022-11-28T06:35:45.118Z,2.40
2022-11-28T06:36:48.818Z,2.42
2022-11-28T06:37:51.518Z,2.42
2022-11-28T06:38:55.339Z,2.43
2022-11-28T06:39:59.337Z,2.45
2022-11-28T06:41:03.203Z,2.46
2022-11-28T06:42:07.400Z,2.48
2022-11-28T06:43:11.400Z,2.49
2022-11-28T06:44:16.054Z,2.52
2022-11-28T06:45:19.190Z,2.53
2022-11-28T06:46:23.331Z,2.54
2022-11-28T06:47:26.017Z,2.56
2022-11-28T06:48:29.987Z,2.57
2022-11-28T06:49:32.739Z,2.58
2022-11-28T06:50:36.570Z,2.58
2022-11-28T06:51:39.346Z,2.60
2022-11-28T06:52:43.058Z,2.60
2022-11-28T06:53:45.736Z,2.61
2022-11-28T06:54:49.441Z,2.62
2022-11-28T06:55:52.090Z,2.62
2022-11-28T06:56:55.828Z,2.63
2022-11-28T06:57:58.509Z,2.64
2022-11-28T06:59:03.711Z,2.66
2022-11-28T07:00:07.888Z,2.66
2022-11-28T07:01:13.507Z,2.67
2022-11-28T07:02:16.266Z,2.68
2022-11-28T07:03:20.088Z,2.69
2022-11-28T07:04:23.839Z,2.69
2022-11-28T07:05:27.972Z,2.70
2022-11-28T07:06:31.790Z,2.70
2022-11-28T07:07:45.651Z,2.71
2022-11-28T07:08:57.930Z,2.72
2022-11-28T07:10:00.672Z,2.72
2022-11-28T07:11:12.467Z,2.73
2022-11-28T07:12:15.226Z,2.75
2022-11-28T07:13:18.892Z,2.75
2022-11-28T07:14:24.266Z,2.77
2022-11-28T07:15:27.217Z,2.77
2022-11-28T07:16:32.925Z,2.78
2022-11-28T07:17:36.912Z,2.79
2022-11-28T07:18:40.578Z,2.80
2022-11-28T07:19:44.530Z,2.81
2022-11-28T07:20:48.027Z,2.82
2022-11-28T07:21:52.151Z,2.84
2022-11-28T07:22:55.842Z,2.86
2022-11-28T07:23:59.947Z,2.87
2022-11-28T07:25:02.609Z,2.90
2022-11-28T07:26:07.169Z,2.91
2022-11-28T07:27:10.838Z,2.92
2022-11-28T07:28:13.650Z,2.93
2022-11-28T07:29:19.605Z,2.95
2022-11-28T07:30:23.720Z,2.95
2022-11-28T07:31:32.429Z,2.98
2022-11-28T07:32:36.539Z,2.98
2022-11-28T07:33:39.768Z,3.00
2022-11-28T07:34:46.656Z,3.01
2022-11-28T07:35:52.567Z,3.01
2022-11-28T07:36:56.316Z,3.04
2022-11-28T07:37:59.007Z,3.05
2022-11-28T07:39:04.898Z,3.06
2022-11-28T07:40:08.609Z,3.08
2022-11-28T07:41:14.489Z,3.12
2022-11-28T07:42:17.760Z,3.14
2022-11-28T07:43:33.823Z,3.17
2022-11-28T07:44:37.699Z,3.19
2022-11-28T07:46:00.015Z,3.22
2022-11-28T07:47:05.062Z,3.22
2022-11-28T07:48:07.998Z,3.25
2022-11-28T07:49:12.290Z,3.25
2022-11-28T07:50:14.944Z,3.29
2022-11-28T07:51:20.471Z,3.32
2022-11-28T07:52:24.232Z,3.34
2022-11-28T07:53:27.141Z,3.38
2022-11-28T07:54:30.951Z,3.41
2022-11-28T07:55:35.823Z,3.46
2022-11-28T07:57:10.718Z,3.48
2022-11-28T07:58:04.798Z,3.49
2022-11-28T07:59:07.980Z,3.53
2022-11-28T08:00:12.746Z,3.56
2022-11-28T08:01:20.228Z,3.58
2022-11-28T08:02:22.951Z,3.58
2022-11-28T08:03:26.719Z,3.58
2022-11-28T08:04:29.521Z,3.56
2022-11-28T08:05:33.467Z,3.53
2022-11-28T08:06:39.430Z,3.51
2022-11-28T08:07:42.184Z,3.50
2022-11-28T08:08:47.313Z,3.49
2022-11-28T08:09:51.080Z,3.50
2022-11-28T08:10:58.179Z,3.51
2022-11-28T08:12:01.888Z,3.51
2022-11-28T08:13:04.725Z,3.53
2022-11-28T08:14:08.649Z,3.56
2022-11-28T08:15:11.976Z,3.60
2022-11-28T08:16:18.439Z,3.63
2022-11-28T08:17:21.299Z,3.66
2022-11-28T08:18:25.266Z,3.70
2022-11-28T08:19:33.705Z,3.75
2022-11-28T08:20:39.040Z,3.79
2022-11-28T08:21:42.779Z,3.83
2022-11-28T08:22:45.459Z,3.86
2022-11-28T08:23:49.237Z,3.90
2022-11-28T08:24:52.918Z,3.95
2022-11-28T08:25:56.010Z,3.99
2022-11-28T08:26:59.760Z,4.04
2022-11-28T08:28:02.549Z,4.08
2022-11-28T08:29:06.604Z,4.12
2022-11-28T08:30:10.601Z,4.13
2022-11-28T08:31:15.911Z,4.13
2022-11-28T08:32:20.601Z,4.14
2022-11-28T08:33:24.782Z,4.14
2022-11-28T08:34:28.557Z,4.16
2022-11-28T08:35:32.278Z,4.18
2022-11-28T08:36:36.156Z,4.20
2022-11-28T08:37:40.349Z,4.22
2022-11-28T08:38:57.823Z,4.23
2022-11-28T08:40:10.718Z,4.25
2022-11-28T08:41:16.289Z,4.27
2022-11-28T08:42:20.028Z,4.28
2022-11-28T08:43:23.748Z,4.32
2022-11-28T08:44:30.290Z,4.34
2022-11-28T08:45:33.368Z,4.38
2022-11-28T08:46:37.207Z,4.40
2022-11-28T08:47:41.299Z,4.43
2022-11-28T08:48:45.581Z,4.46
2022-11-28T08:49:49.308Z,4.48
2022-11-28T08:50:52.180Z,4.50
2022-11-28T08:51:55.900Z,4.54
2022-11-28T08:53:01.897Z,4.55
2022-11-28T08:54:11.242Z,4.56
2022-11-28T08:55:14.924Z,4.60
2022-11-28T08:56:17.630Z,4.61
2022-11-28T08:57:21.408Z,4.62
2022-11-28T08:58:24.257Z,4.65
2022-11-28T08:59:28.205Z,4.66
2022-11-28T09:00:32.125Z,4.68
2022-11-28T09:01:35.973Z,4.70
2022-11-28T09:02:39.750Z,4.70
2022-11-28T09:03:43.958Z,4.73
2022-11-28T09:04:47.789Z,4.74
2022-11-28T09:05:51.898Z,4.75
2022-11-28T09:06:55.689Z,4.74
2022-11-28T09:07:58.836Z,4.76
2022-11-28T09:09:03.201Z,4.79
2022-11-28T09:10:08.708Z,4.80
2022-11-28T09:11:13.229Z,4.78
2022-11-28T09:12:16.999Z,4.78
2022-11-28T09:13:20.839Z,4.78
2022-11-28T09:14:24.579Z,4.78
2022-11-28T09:15:27.991Z,4.78
2022-11-28T09:16:31.694Z,4.79
2022-11-28T09:17:34.516Z,4.78
2022-11-28T09:18:38.274Z,4.79
2022-11-28T09:19:44.035Z,4.77
2022-11-28T09:20:46.998Z,4.78
2022-11-28T09:21:56.165Z,4.79
2022-11-28T09:23:01.507Z,4.78
2022-11-28T09:24:06.656Z,4.79
2022-11-28T09:25:09.784Z,4.80
2022-11-28T09:26:15.123Z,4.82
2022-11-28T09:27:19.531Z,4.82
2022-11-28T09:28:23.571Z,4.83
2022-11-28T09:29:28.523Z,4.84
2022-11-28T09:30:31.295Z,4.86
2022-11-28T09:31:35.198Z,4.86
2022-11-28T09:32:37.999Z,4.87
2022-11-28T09:33:42.179Z,4.87
2022-11-28T09:34:47.878Z,4.89
2022-11-28T09:35:50.754Z,4.91
2022-11-28T09:36:54.587Z,4.91
2022-11-28T09:37:58.291Z,4.93
2022-11-28T09:39:02.671Z,4.96
2022-11-28T09:40:15.188Z,4.97
2022-11-28T09:41:55.781Z,5.00
2022-11-28T09:43:01.218Z,4.99
2022-11-28T09:44:10.648Z,5.03
2022-11-28T09:45:17.217Z,5.05
2022-11-28T09:46:26.281Z,5.08
2022-11-28T09:47:31.339Z,5.12
2022-11-28T09:48:38.247Z,5.14
2022-11-28T09:49:47.384Z,5.19
2022-11-28T09:50:55.909Z,5.24
2022-11-28T09:52:02.159Z,5.29
2022-11-28T09:53:16.697Z,5.36
2022-11-28T09:54:23.329Z,5.40
2022-11-28T09:55:33.806Z,5.45
2022-11-28T09:56:36.661Z,5.48
2022-11-28T09:57:42.734Z,5.53
2022-11-28T09:58:49.311Z,5.55
2022-11-28T09:59:53.048Z,5.56
2022-11-28T10:01:02.187Z,5.60
2022-11-28T10:02:18.258Z,5.65
2022-11-28T10:03:36.003Z,5.66
2022-11-28T10:04:43.580Z,5.67
2022-11-28T10:05:54.617Z,5.70
2022-11-28T10:07:06.882Z,5.73
2022-11-28T10:08:23.976Z,5.77
2022-11-28T10:09:35.246Z,5.75
2022-11-28T10:10:44.410Z,5.79
2022-11-28T10:11:56.516Z,5.82
2022-11-28T10:13:04.966Z,5.85
2022-11-28T10:14:27.016Z,5.87
2022-11-28T10:15:41.958Z,5.89
2022-11-28T10:16:53.405Z,5.94
2022-11-28T10:18:06.284Z,5.98
2022-11-28T10:19:31.532Z,6.04
2022-11-28T10:20:39.800Z,6.08
2022-11-28T10:21:47.716Z,6.11
2022-11-28T10:22:53.486Z,6.11
2022-11-28T10:24:00.105Z,6.11
2022-11-28T10:25:07.549Z,6.12
2022-11-28T10:26:18.144Z,6.13
2022-11-28T10:27:26.781Z,6.16
2022-11-28T10:28:33.860Z,6.15
2022-11-28T10:29:47.061Z,6.11
2022-11-28T10:30:56.338Z,6.08
2022-11-28T10:32:03.099Z,6.06
2022-11-28T10:33:12.749Z,6.05
2022-11-28T10:34:18.799Z,6.04
2022-11-28T10:35:28.684Z,6.06
2022-11-28T10:36:36.164Z,6.08
2022-11-28T10:37:42.146Z,6.11
2022-11-28T10:38:45.817Z,6.12
2022-11-28T10:39:49.216Z,6.15
2022-11-28T10:41:00.075Z,6.19
2022-11-28T10:42:14.045Z,6.21
2022-11-28T10:43:29.096Z,6.27
2022-11-28T10:44:38.272Z,6.28
2022-11-28T10:45:48.446Z,6.31
2022-11-28T10:46:59.019Z,6.33
2022-11-28T10:49:52.249Z,6.36
2022-11-28T10:51:01.960Z,6.38
2022-11-28T10:52:12.091Z,6.36
2022-11-28T10:53:26.376Z,6.36
2022-11-28T10:54:47.224Z,6.36
2022-11-28T10:56:00.639Z,6.40
2022-11-28T10:57:07.779Z,6.39
2022-11-28T10:58:15.589Z,6.40
2022-11-28T10:59:28.910Z,6.42
2022-11-28T11:00:33.027Z,6.42
2022-11-28T11:01:39.385Z,6.41
2022-11-28T11:02:45.099Z,6.43
2022-11-28T11:03:50.061Z,6.46
2022-11-28T11:04:54.324Z,6.48
2022-11-28T11:05:58.145Z,6.50
2022-11-28T11:07:20.209Z,6.52
2022-11-28T11:08:29.581Z,6.53
2022-11-28T11:09:32.259Z,6.58
2022-11-28T11:10:39.180Z,6.62
2022-11-28T11:11:48.601Z,6.64
2022-11-28T11:12:52.589Z,6.62
2022-11-28T11:14:01.703Z,6.61
2022-11-28T11:15:18.021Z,6.60
2022-11-28T11:16:20.781Z,6.57
2022-11-28T11:17:34.355Z,6.55
2022-11-28T11:18:53.470Z,6.53
2022-11-28T11:19:56.918Z,6.52
2022-11-28T11:21:12.054Z,6.51
2022-11-28T11:22:20.355Z,6.50
2022-11-28T11:23:24.855Z,6.51
2022-11-28T11:24:30.205Z,6.51
2022-11-28T11:25:34.204Z,6.53
2022-11-28T11:26:42.136Z,6.55
2022-11-28T11:27:50.951Z,6.58
2022-11-28T11:28:54.893Z,6.59
2022-11-28T11:29:57.708Z,6.58
2022-11-28T11:31:02.321Z,6.58
2022-11-28T11:32:07.453Z,6.60
2022-11-28T11:33:17.583Z,6.62
2022-11-28T11:34:23.149Z,6.65
2022-11-28T11:35:28.322Z,6.69
2022-11-28T11:36:32.597Z,6.72
2022-11-28T11:37:38.506Z,6.75
2022-11-28T11:38:42.405Z,6.76
2022-11-28T11:39:50.610Z,6.79
2022-11-28T11:40:54.377Z,6.81
2022-11-28T11:42:12.750Z,6.84
2022-11-28T11:43:28.462Z,6.81
2022-11-28T11:44:35.485Z,6.80
2022-11-28T11:45:39.718Z,6.78
2022-11-28T11:46:52.557Z,6.76
2022-11-28T11:47:56.721Z,6.77
2022-11-28T11:48:59.634Z,6.78
2022-11-28T11:50:06.214Z,6.78
2022-11-28T11:51:23.249Z,6.77
2022-11-28T11:52:27.819Z,6.75
2022-11-28T11:53:31.621Z,6.75
2022-11-28T11:54:35.385Z,6.76
2022-11-28T11:55:46.250Z,6.76
2022-11-28T11:57:00.738Z,6.75
2022-11-28T11:58:17.927Z,6.72
2022-11-28T11:59:24.700Z,6.71
2022-11-28T12:00:32.092Z,6.73
2022-11-28T12:01:36.923Z,6.73
2022-11-28T12:02:45.771Z,6.75
2022-11-28T12:03:54.950Z,6.75
2022-11-28T12:05:04.147Z,6.75
2022-11-28T12:06:14.965Z,6.76
2022-11-28T12:07:26.775Z,6.77
2022-11-28T12:08:35.282Z,6.76
2022-11-28T12:09:43.875Z,6.76
2022-11-28T12:10:53.059Z,6.77
2022-11-28T12:12:01.029Z,6.77
2022-11-28T12:13:05.133Z,6.76
2022-11-28T12:14:32.999Z,6.78
2022-11-28T12:15:48.113Z,6.79
2022-11-28T12:16:55.791Z,6.80
2022-11-28T12:18:09.678Z,6.81
2022-11-28T12:19:22.816Z,6.83
2022-11-28T12:20:35.299Z,6.85
2022-11-28T12:21:42.707Z,6.87
2022-11-28T12:22:50.710Z,6.90
2022-11-28T12:24:03.624Z,6.93
2022-11-28T12:25:13.618Z,6.96
2022-11-28T12:26:22.420Z,6.95
2022-11-28T12:27:33.038Z,6.97
2022-11-28T12:28:47.341Z,6.99
2022-11-28T12:29:56.118Z,7.02
2022-11-28T12:31:05.326Z,7.04
2022-11-28T12:32:23.918Z,7.04
2022-11-28T12:33:41.451Z,7.11
2022-11-28T12:34:55.837Z,7.17
2022-11-28T12:36:12.358Z,7.23
2022-11-28T12:37:33.096Z,7.27
2022-11-28T12:39:01.808Z,7.29
2022-11-28T12:40:15.140Z,7.30
2022-11-28T12:41:32.749Z,7.27
2022-11-28T12:42:47.368Z,7.28
2022-11-28T12:43:58.499Z,7.31
2022-11-28T12:45:19.978Z,7.32
2022-11-28T12:46:30.102Z,7.35
2022-11-28T12:47:41.066Z,7.36
2022-11-28T12:48:54.763Z,7.38
2022-11-28T12:50:01.287Z,7.38
2022-11-28T12:51:13.860Z,7.38
2022-11-28T12:52:24.209Z,7.37
2022-11-28T12:53:41.002Z,7.38
2022-11-28T12:55:02.433Z,7.41
2022-11-28T12:56:23.129Z,7.44
2022-11-28T12:57:34.494Z,7.43
2022-11-28T12:58:42.033Z,7.43
2022-11-28T12:59:49.721Z,7.42
2022-11-28T13:01:00.562Z,7.44
2022-11-28T13:02:20.470Z,7.45
2022-11-28T13:03:35.968Z,7.45
2022-11-28T13:05:04.047Z,7.43
2022-11-28T13:06:16.674Z,7.40
2022-11-28T13:07:27.427Z,7.38
2022-11-28T13:08:58.172Z,7.36
2022-11-28T13:10:06.165Z,7.37
2022-11-28T13:11:18.577Z,7.35
2022-11-28T13:12:26.049Z,7.35
2022-11-28T13:13:34.284Z,7.34
2022-11-28T13:14:43.770Z,7.30
2022-11-28T13:15:58.747Z,7.28
2022-11-28T13:17:12.687Z,7.27
2022-11-28T13:18:25.688Z,7.27
2022-11-28T13:19:37.462Z,7.27
2022-11-28T13:20:46.557Z,7.26
2022-11-28T13:21:55.210Z,7.24
2022-11-28T13:23:05.599Z,7.22
2022-11-28T13:24:18.349Z,7.18
2022-11-28T13:25:28.389Z,7.14
2022-11-28T13:26:43.671Z,7.12
2022-11-28T13:27:54.658Z,7.10
2022-11-28T13:29:03.641Z,7.10
2022-11-28T13:30:17.653Z,7.07
2022-11-28T13:31:25.864Z,7.01
2022-11-28T13:32:35.726Z,6.99
2022-11-28T13:33:49.439Z,6.96
2022-11-28T13:34:53.599Z,6.94
2022-11-28T13:35:58.932Z,6.92
2022-11-28T13:38:39.294Z,6.86
2022-11-28T13:39:52.519Z,6.84
2022-11-28T13:40:59.819Z,6.82
2022-11-28T13:43:02.157Z,6.79
2022-11-28T13:43:42.179Z,6.71
2022-11-28T13:44:52.172Z,6.66
2022-11-28T13:45:56.361Z,6.62
2022-11-28T13:47:14.827Z,6.58
2022-11-28T13:50:40.908Z,6.45
2022-11-28T13:51:44.657Z,6.42
2022-11-28T13:52:58.703Z,6.40
2022-11-28T13:54:49.010Z,6.36
2022-11-28T13:55:53.385Z,6.29
2022-11-28T13:57:07.067Z,6.26
2022-11-28T13:58:16.900Z,6.23
2022-11-28T13:59:22.270Z,6.20
2022-11-28T14:00:27.907Z,6.18
2022-11-28T14:01:32.272Z,6.16
2022-11-28T14:02:42.099Z,6.12
2022-11-28T14:03:49.302Z,6.10
2022-11-28T14:04:52.053Z,6.08
2022-11-28T14:05:57.561Z,6.07
2022-11-28T14:07:03.841Z,6.07
2022-11-28T14:08:08.604Z,6.08
2022-11-28T14:09:26.031Z,6.09
2022-11-28T14:10:56.516Z,6.06
2022-11-28T14:12:09.920Z,6.03
2022-11-28T14:13:26.699Z,6.01
2022-11-28T14:14:55.381Z,5.99
2022-11-28T14:16:08.843Z,5.93
2022-11-28T14:17:34.380Z,5.86
2022-11-28T14:18:57.574Z,5.79
2022-11-28T14:20:14.515Z,5.70
2022-11-28T14:21:26.818Z,5.60
2022-11-28T14:22:39.380Z,5.52
2022-11-28T14:23:45.968Z,5.43
2022-11-28T14:24:55.897Z,5.34
2022-11-28T14:26:00.390Z,5.25
2022-11-28T14:27:08.241Z,5.16
2022-11-28T14:28:20.489Z,5.08
2022-11-28T14:29:28.117Z,5.00
2022-11-28T14:30:34.037Z,4.94
2022-11-28T14:31:55.212Z,4.88
2022-11-28T14:33:07.159Z,4.78
2022-11-28T14:34:38.212Z,4.68
2022-11-28T14:36:04.892Z,4.58
2022-11-28T14:37:57.835Z,4.45
2022-11-28T14:39:20.649Z,4.31
2022-11-28T14:41:04.410Z,4.17
2022-11-28T14:44:33.443Z,3.90
2022-11-28T14:45:44.728Z,3.80
2022-11-28T14:47:13.957Z,3.73
2022-11-28T14:48:29.537Z,3.64
2022-11-28T14:49:34.899Z,3.60
2022-11-28T14:50:55.934Z,3.55
2022-11-28T14:52:39.885Z,3.46
2022-11-28T14:53:47.368Z,3.37
2022-11-28T14:54:53.399Z,3.29
2022-11-28T14:56:11.251Z,3.25
2022-11-28T14:59:13.972Z,3.06
2022-11-28T15:00:20.569Z,3.01
2022-11-28T15:01:42.827Z,2.95
2022-11-28T15:03:18.396Z,2.88
2022-11-28T15:04:42.652Z,2.81
2022-11-28T15:05:47.846Z,2.77
2022-11-28T15:06:52.320Z,2.74
2022-11-28T15:08:18.860Z,2.71
2022-11-28T15:09:26.413Z,2.67
2022-11-28T15:10:37.718Z,2.63
2022-11-28T15:12:08.703Z,2.61